Time;durP1;ratioP1;P1;durP2;ratioP2;P2;SDS_P1;SDS_P2;PMS_P1;PMS_P2;Temp;Humidity;BMP_temperature;BMP_pressure;BME280_temperature;BME280_humidity;BME280_pressure;Samples;Min_cycle;Max_cycle;Signal;HPM_P1;HPM_P2
2021/06/15 00:00:25;;;;;;;;;;;17.40;75.70;;;;;;5050201;28;19917;-65
2021/06/15 00:02:51;;;;;;;;;;;17.40;75.80;;;;;;5050563;28;20023;-64
2021/06/15 00:05:17;;;;;;;;;;;17.50;75.90;;;;;;5051079;28;20004;-64
2021/06/15 00:07:42;;;;;;;;;;;17.40;75.90;;;;;;5052005;28;19984;-64
2021/06/15 00:10:13;;;;;;;;;;;17.40;76.40;;;;;;5049938;28;19928;-64
2021/06/15 00:12:39;;;;;;;;;;;17.40;76.00;;;;;;5051929;28;19999;-63
2021/06/15 00:15:05;;;;;;;;;;;17.40;76.00;;;;;;5051125;28;20020;-64
2021/06/15 00:17:31;;;;;;;;;;;17.40;76.10;;;;;;5051521;28;20353;-65
2021/06/15 00:19:57;;;;;;;;;;;17.40;76.20;;;;;;5051378;28;19924;-64
2021/06/15 00:22:22;;;;;;;;;;;17.40;76.40;;;;;;5050022;28;19924;-65
2021/06/15 00:24:48;;;;;;;;;;;17.40;76.50;;;;;;5051114;28;19920;-65
2021/06/15 00:27:14;;;;;;;;;;;17.30;76.70;;;;;;5051877;28;20457;-65
2021/06/15 00:29:39;;;;;;;;;;;17.30;76.80;;;;;;5050799;28;19924;-64
2021/06/15 00:32:05;;;;;;;;;;;17.20;76.90;;;;;;5051640;28;19917;-64
2021/06/15 00:34:31;;;;;;;;;;;17.20;77.00;;;;;;5050852;28;19916;-65
2021/06/15 00:36:56;;;;;;;;;;;17.20;77.10;;;;;;5051242;28;20345;-64
2021/06/15 00:39:22;;;;;;;;;;;17.20;77.30;;;;;;5049797;28;19921;-65
2021/06/15 00:41:48;;;;;;;;;;;17.10;77.40;;;;;;5051226;28;19946;-64
2021/06/15 00:44:13;;;;;;;;;;;17.10;77.60;;;;;;5050574;28;19989;-64
2021/06/15 00:46:40;;;;;;;;;;;17.10;77.80;;;;;;5033761;28;19916;-64
2021/06/15 00:49:07;;;;;;;;;;;17.10;77.90;;;;;;5050214;28;19917;-64
2021/06/15 00:51:33;;;;;;;;;;;17.10;78.10;;;;;;5050161;28;20015;-63
2021/06/15 00:53:59;;;;;;;;;;;17.00;78.10;;;;;;5049812;28;20002;-65
2021/06/15 00:56:25;;;;;;;;;;;17.00;78.20;;;;;;5049725;28;19924;-64
2021/06/15 00:58:51;;;;;;;;;;;17.10;78.30;;;;;;5049617;28;19916;-63
2021/06/15 01:01:19;;;;;;;;;;;17.00;78.50;;;;;;5049612;28;19947;-64
2021/06/15 01:03:46;;;;;;;;;;;17.00;78.70;;;;;;5049133;28;19954;-63
2021/06/15 01:06:16;;;;;;;;;;;17.00;78.70;;;;;;5050111;28;19970;-65
2021/06/15 01:08:50;;;;;;;;;;;17.00;78.70;;;;;;5050789;28;20304;-64
2021/06/15 01:11:25;;;;;;;;;;;16.90;78.80;;;;;;5049367;28;19920;-64
2021/06/15 01:14:09;;;;;;;;;;;16.90;79.00;;;;;;5050383;28;19923;-63
2021/06/15 01:16:35;;;;;;;;;;;16.90;79.20;;;;;;5050117;28;20372;-65
2021/06/15 01:19:16;;;;;;;;;;;16.90;79.20;;;;;;5048897;28;20410;-64
2021/06/15 01:21:48;;;;;;;;;;;16.90;79.30;;;;;;5049434;28;19920;-64
2021/06/15 01:24:21;;;;;;;;;;;16.90;79.50;;;;;;5031945;28;19921;-64
2021/06/15 01:27:00;;;;;;;;;;;16.80;79.70;;;;;;5029768;28;20395;-64
2021/06/15 01:29:29;;;;;;;;;;;16.80;79.60;;;;;;5012872;28;19940;-63
2021/06/15 01:32:00;;;;;;;;;;;16.80;79.70;;;;;;5029707;28;19917;-64
2021/06/15 01:34:37;;;;;;;;;;;16.80;79.80;;;;;;5028731;28;19918;-65
2021/06/15 01:37:09;;;;;;;;;;;16.80;79.80;;;;;;5031092;28;19924;-64
2021/06/15 01:39:39;;;;;;;;;;;16.80;79.70;;;;;;5039539;28;19920;-64
2021/06/15 01:42:18;;;;;;;;;;;16.80;79.70;;;;;;5050935;28;19919;-64
2021/06/15 01:44:45;;;;;;;;;;;16.80;80.30;;;;;;5050055;28;19924;-63
2021/06/15 01:47:12;;;;;;;;;;;16.80;80.00;;;;;;5052227;28;19917;-64
2021/06/15 01:49:44;;;;;;;;;;;16.80;80.00;;;;;;5052224;28;19916;-65
2021/06/15 01:52:11;;;;;;;;;;;16.90;80.20;;;;;;5054636;28;20323;-63
2021/06/15 01:54:41;;;;;;;;;;;16.90;80.00;;;;;;5053472;28;19920;-64
2021/06/15 01:57:13;;;;;;;;;;;16.90;80.00;;;;;;5053319;28;19924;-65
2021/06/15 01:59:40;;;;;;;;;;;16.80;80.00;;;;;;5052545;28;19947;-64
2021/06/15 02:02:07;;;;;;;;;;;16.90;80.20;;;;;;5054173;28;19921;-64
2021/06/15 02:04:34;;;;;;;;;;;16.90;80.20;;;;;;5053579;28;20313;-64
2021/06/15 02:07:02;;;;;;;;;;;16.90;80.20;;;;;;5052734;28;19952;-65
2021/06/15 02:09:31;;;;;;;;;;;16.90;80.20;;;;;;5052322;28;19921;-64
2021/06/15 02:12:05;;;;;;;;;;;16.90;80.10;;;;;;5052520;28;19916;-65
2021/06/15 02:14:51;;;;;;;;;;;16.90;80.40;;;;;;5052326;28;20340;-65
2021/06/15 02:17:29;;;;;;;;;;;16.90;80.60;;;;;;5037665;28;19948;-65
2021/06/15 02:20:12;;;;;;;;;;;16.90;80.60;;;;;;5038009;28;20366;-63
2021/06/15 02:22:46;;;;;;;;;;;16.90;80.60;;;;;;5032333;28;20011;-65
2021/06/15 02:25:13;;;;;;;;;;;16.90;80.60;;;;;;5032576;28;19925;-64
2021/06/15 02:27:41;;;;;;;;;;;16.90;80.60;;;;;;5032281;28;19913;-64
2021/06/15 02:30:08;;;;;;;;;;;16.90;80.60;;;;;;5040512;28;19919;-62
2021/06/15 02:32:59;;;;;;;;;;;16.90;80.60;;;;;;5052873;28;20008;-65
2021/06/15 02:35:26;;;;;;;;;;;16.80;80.60;;;;;;5052376;28;19917;-64
2021/06/15 02:37:59;;;;;;;;;;;16.80;80.40;;;;;;5053294;28;20338;-65
2021/06/15 02:40:26;;;;;;;;;;;16.70;80.50;;;;;;5051831;28;19954;-65
2021/06/15 02:42:54;;;;;;;;;;;16.70;80.50;;;;;;5051237;28;19923;-65
2021/06/15 02:45:21;;;;;;;;;;;16.70;81.00;;;;;;5052302;28;19971;-64
2021/06/15 02:47:48;;;;;;;;;;;16.70;80.50;;;;;;5052283;28;19920;-64
2021/06/15 02:50:17;;;;;;;;;;;16.60;80.60;;;;;;5051202;28;20311;-64
2021/06/15 02:53:04;;;;;;;;;;;16.60;80.50;;;;;;5053539;28;19921;-63
2021/06/15 02:55:36;;;;;;;;;;;16.60;80.50;;;;;;5051889;28;19932;-65
2021/06/15 02:58:02;;;;;;;;;;;16.50;80.50;;;;;;5052683;28;20403;-63
2021/06/15 03:00:29;;;;;;;;;;;16.50;80.60;;;;;;5050684;28;19924;-65
2021/06/15 03:02:54;;;;;;;;;;;16.50;80.60;;;;;;5052569;28;19917;-64
2021/06/15 03:05:22;;;;;;;;;;;16.50;80.50;;;;;;5051638;28;19967;-64
2021/06/15 03:07:51;;;;;;;;;;;16.50;80.40;;;;;;5051938;28;19932;-63
2021/06/15 03:10:19;;;;;;;;;;;16.40;80.20;;;;;;5051133;28;20411;-64
2021/06/15 03:12:50;;;;;;;;;;;16.50;80.40;;;;;;5051215;28;19916;-64
2021/06/15 03:15:19;;;;;;;;;;;16.50;80.30;;;;;;5051630;28;19917;-64
2021/06/15 03:18:03;;;;;;;;;;;16.50;80.00;;;;;;5051359;28;20003;-65
2021/06/15 03:20:29;;;;;;;;;;;16.50;80.00;;;;;;5034641;28;19943;-65
2021/06/15 03:23:14;;;;;;;;;;;16.50;79.90;;;;;;5051690;28;19913;-64
2021/06/15 03:25:42;;;;;;;;;;;16.40;79.80;;;;;;5051485;28;19928;-64
2021/06/15 03:28:15;;;;;;;;;;;16.40;79.50;;;;;;5051453;28;20121;-65
2021/06/15 03:30:43;;;;;;;;;;;16.40;79.40;;;;;;5050901;28;19916;-64
2021/06/15 03:33:09;;;;;;;;;;;16.30;79.40;;;;;;5050411;28;20483;-65
2021/06/15 03:35:40;;;;;;;;;;;16.30;79.80;;;;;;5051471;28;19948;-64
2021/06/15 03:38:08;;;;;;;;;;;16.30;79.40;;;;;;5051338;28;19916;-64
2021/06/15 03:40:36;;;;;;;;;;;16.20;79.40;;;;;;5050058;28;20012;-64
2021/06/15 03:43:02;;;;;;;;;;;16.30;79.40;;;;;;5051911;28;19971;-64
2021/06/15 03:45:30;;;;;;;;;;;16.30;79.40;;;;;;5052290;28;20007;-64
2021/06/15 03:47:57;;;;;;;;;;;16.20;79.20;;;;;;5051223;28;19947;-65
2021/06/15 03:50:22;;;;;;;;;;;16.20;79.10;;;;;;5050651;28;19921;-64
2021/06/15 03:52:50;;;;;;;;;;;16.20;79.10;;;;;;5051701;28;20369;-63
2021/06/15 03:55:18;;;;;;;;;;;16.20;79.10;;;;;;5052048;28;19917;-64
2021/06/15 03:57:43;;;;;;;;;;;16.20;78.90;;;;;;5051900;28;19916;-65
2021/06/15 04:00:11;;;;;;;;;;;16.20;78.90;;;;;;5051669;28;19923;-64
2021/06/15 04:02:39;;;;;;;;;;;16.10;78.80;;;;;;5052278;28;20016;-63
2021/06/15 04:05:05;;;;;;;;;;;16.10;78.70;;;;;;5051015;28;19996;-63
2021/06/15 04:07:32;;;;;;;;;;;16.10;78.80;;;;;;5041089;28;20034;-65
2021/06/15 04:09:59;;;;;;;;;;;16.10;78.90;;;;;;5040184;28;20289;-65
2021/06/15 04:12:25;;;;;;;;;;;16.10;78.90;;;;;;5045828;28;20381;-65
2021/06/15 04:14:51;;;;;;;;;;;16.10;78.90;;;;;;5041739;28;20339;-64
2021/06/15 04:17:25;;;;;;;;;;;16.10;78.80;;;;;;5050142;28;19917;-65
2021/06/15 04:20:03;;;;;;;;;;;16.10;78.80;;;;;;5051527;28;19917;-67
2021/06/15 04:22:31;;;;;;;;;;;16.10;78.70;;;;;;5050486;28;19917;-65
2021/06/15 04:24:58;;;;;;;;;;;16.10;78.60;;;;;;5049886;28;20320;-64
2021/06/15 04:27:25;;;;;;;;;;;16.00;78.50;;;;;;5051489;28;19917;-65
2021/06/15 04:29:55;;;;;;;;;;;16.10;78.50;;;;;;5051269;28;19917;-64
2021/06/15 04:32:22;;;;;;;;;;;16.10;78.40;;;;;;5051866;28;20343;-64
2021/06/15 04:34:52;;;;;;;;;;;16.10;78.30;;;;;;5049896;28;19913;-64
2021/06/15 04:37:18;;;;;;;;;;;16.10;78.40;;;;;;5033960;28;19936;-64
2021/06/15 04:39:49;;;;;;;;;;;16.10;78.40;;;;;;5080084;22;19982;-63
2021/06/15 04:42:16;;;;;;;;;;;16.00;78.10;;;;;;5057788;28;20427;-63
2021/06/15 04:44:43;;;;;;;;;;;16.10;78.20;;;;;;5038827;28;19925;-63
2021/06/15 04:47:20;;;;;;;;;;;16.10;78.30;;;;;;5039909;28;20455;-63
2021/06/15 04:49:49;;;;;;;;;;;16.00;78.00;;;;;;5039542;28;19952;-63
2021/06/15 04:52:15;;;;;;;;;;;16.00;78.00;;;;;;5030633;28;20031;-63
2021/06/15 04:54:45;;;;;;;;;;;16.00;77.90;;;;;;5030553;28;20438;-64
2021/06/15 04:57:13;;;;;;;;;;;16.00;78.00;;;;;;5029593;28;19932;-63
2021/06/15 04:59:39;;;;;;;;;;;16.00;78.00;;;;;;5030240;28;19920;-64
2021/06/15 05:02:05;;;;;;;;;;;16.00;78.00;;;;;;5029818;28;19924;-63
2021/06/15 05:04:32;;;;;;;;;;;16.00;77.90;;;;;;5030979;28;19921;-64
2021/06/15 05:06:57;;;;;;;;;;;16.10;77.80;;;;;;5030258;28;20373;-64
2021/06/15 05:09:25;;;;;;;;;;;16.10;77.80;;;;;;5030861;28;19923;-64
2021/06/15 05:11:52;;;;;;;;;;;16.10;77.70;;;;;;5030054;28;19953;-64
2021/06/15 05:14:18;;;;;;;;;;;16.10;77.70;;;;;;5029503;28;19947;-63
2021/06/15 05:16:44;;;;;;;;;;;16.20;77.80;;;;;;5031210;28;20008;-65
2021/06/15 05:19:10;;;;;;;;;;;16.20;77.30;;;;;;5031041;28;19924;-64
2021/06/15 05:21:54;;;;;;;;;;;16.30;77.20;;;;;;5029847;28;19921;-64
2021/06/15 05:24:22;;;;;;;;;;;16.30;77.00;;;;;;5034656;28;19929;-64
2021/06/15 05:26:48;;;;;;;;;;;16.40;77.00;;;;;;5033428;28;20266;-65
2021/06/15 05:29:14;;;;;;;;;;;16.40;76.80;;;;;;5034093;28;19921;-64
2021/06/15 05:31:39;;;;;;;;;;;16.40;76.60;;;;;;5043905;28;19991;-65
2021/06/15 05:34:05;;;;;;;;;;;16.50;76.40;;;;;;5053508;28;19991;-64
2021/06/15 05:36:31;;;;;;;;;;;16.60;76.10;;;;;;5054595;28;20365;-63
2021/06/15 05:38:57;;;;;;;;;;;16.70;75.70;;;;;;5051324;28;19963;-64
2021/06/15 05:41:22;;;;;;;;;;;16.80;76.20;;;;;;5054450;28;19956;-59
2021/06/15 05:43:48;;;;;;;;;;;16.80;75.70;;;;;;5054279;28;19920;-59
2021/06/15 05:46:13;;;;;;;;;;;17.00;75.60;;;;;;5052895;28;19917;-59
2021/06/15 05:48:39;;;;;;;;;;;17.20;75.30;;;;;;5054390;28;20440;-59
2021/06/15 05:51:05;;;;;;;;;;;17.30;75.30;;;;;;5052330;28;19970;-59
2021/06/15 05:53:31;;;;;;;;;;;17.50;74.90;;;;;;5053172;28;20011;-60
2021/06/15 05:55:56;;;;;;;;;;;17.60;74.60;;;;;;5054436;28;19923;-59
2021/06/15 05:58:22;;;;;;;;;;;17.80;74.30;;;;;;5053754;28;20015;-59
2021/06/15 06:00:49;;;;;;;;;;;18.10;74.10;;;;;;5053617;28;19925;-59
2021/06/15 06:03:20;;;;;;;;;;;18.20;73.20;;;;;;5053232;28;20297;-59
2021/06/15 06:08:30;;;;;;;;;;;18.50;72.10;;;;;;5053082;28;19935;-59
2021/06/15 06:10:56;;;;;;;;;;;18.70;71.90;;;;;;5052751;28;20007;-58
2021/06/15 06:13:21;;;;;;;;;;;18.80;71.50;;;;;;5051584;28;19959;-61
2021/06/15 06:15:47;;;;;;;;;;;19.00;71.40;;;;;;5053334;28;20373;-61
2021/06/15 06:18:13;;;;;;;;;;;19.30;71.10;;;;;;5053845;28;19970;-61
2021/06/15 06:20:39;;;;;;;;;;;19.50;70.10;;;;;;5053511;28;19955;-60
2021/06/15 06:23:05;;;;;;;;;;;19.80;70.40;;;;;;5052122;28;20285;-59
2021/06/15 06:25:31;;;;;;;;;;;20.20;70.30;;;;;;5053656;28;19917;-59
2021/06/15 06:27:57;;;;;;;;;;;20.60;69.40;;;;;;5051839;28;20274;-60
2021/06/15 06:30:23;;;;;;;;;;;21.20;69.40;;;;;;5053551;28;19923;-60
2021/06/15 06:32:48;;;;;;;;;;;21.90;69.30;;;;;;5052954;28;19917;-61
2021/06/15 06:35:14;;;;;;;;;;;22.80;68.90;;;;;;5053072;28;19931;-60
2021/06/15 06:37:40;;;;;;;;;;;24.80;72.70;;;;;;5053636;28;19921;-60
2021/06/15 06:40:06;;;;;;;;;;;27.00;69.60;;;;;;5053121;28;19927;-60
2021/06/15 06:42:31;;;;;;;;;;;27.70;61.50;;;;;;5053744;28;19917;-59
2021/06/15 06:44:57;;;;;;;;;;;27.20;56.30;;;;;;5051669;28;19928;-60
2021/06/15 06:47:23;;;;;;;;;;;26.50;53.60;;;;;;5053110;28;19917;-60
2021/06/15 06:49:49;;;;;;;;;;;25.60;52.90;;;;;;5053033;28;20297;-61
2021/06/15 06:52:14;;;;;;;;;;;25.50;54.30;;;;;;5053372;28;19989;-60
2021/06/15 06:54:40;;;;;;;;;;;25.70;54.00;;;;;;5052644;28;19928;-61
2021/06/15 06:57:05;;;;;;;;;;;25.60;51.70;;;;;;5053219;28;19966;-60
2021/06/15 06:59:31;;;;;;;;;;;25.10;50.00;;;;;;5052846;28;19924;-61
2021/06/15 07:01:56;;;;;;;;;;;24.30;49.30;;;;;;5053146;28;20012;-60
2021/06/15 07:04:22;;;;;;;;;;;23.60;50.00;;;;;;5051244;28;20381;-61
2021/06/15 07:06:47;;;;;;;;;;;24.00;53.30;;;;;;5052536;28;19921;-61
2021/06/15 07:09:13;;;;;;;;;;;25.10;53.10;;;;;;5053069;28;19916;-61
2021/06/15 07:11:39;;;;;;;;;;;25.30;49.90;;;;;;5052927;28;19917;-60
2021/06/15 07:14:05;;;;;;;;;;;25.00;48.60;;;;;;5052258;28;19917;-60
2021/06/15 07:16:31;;;;;;;;;;;24.90;48.80;;;;;;5052828;28;20308;-60
2021/06/15 07:18:56;;;;;;;;;;;25.10;49.00;;;;;;5052642;28;19921;-60
2021/06/15 07:21:22;;;;;;;;;;;25.80;49.90;;;;;;5052537;28;20045;-61
2021/06/15 07:23:48;;;;;;;;;;;27.00;50.40;;;;;;5052317;28;19929;-60
2021/06/15 07:26:13;;;;;;;;;;;28.40;49.90;;;;;;5051105;28;19971;-61
2021/06/15 07:28:39;;;;;;;;;;;29.50;47.90;;;;;;5052597;28;20304;-61
2021/06/15 07:31:04;;;;;;;;;;;30.80;47.00;;;;;;5052288;28;19927;-61
2021/06/15 07:33:30;;;;;;;;;;;31.80;44.20;;;;;;5051636;28;20387;-61
2021/06/15 07:35:56;;;;;;;;;;;31.90;42.30;;;;;;5052379;28;20019;-61
2021/06/15 07:38:22;;;;;;;;;;;31.20;38.80;;;;;;5051726;28;19921;-60
2021/06/15 07:40:47;;;;;;;;;;;30.50;39.50;;;;;;5050967;28;19921;-61
2021/06/15 07:43:14;;;;;;;;;;;30.20;39.60;;;;;;5051979;28;20335;-61
2021/06/15 07:45:40;;;;;;;;;;;30.20;39.80;;;;;;5049911;28;20001;-62
2021/06/15 07:48:06;;;;;;;;;;;30.20;38.90;;;;;;5051724;28;19960;-61
2021/06/15 07:50:31;;;;;;;;;;;29.80;38.10;;;;;;5052058;28;19924;-61
2021/06/15 07:52:57;;;;;;;;;;;29.70;38.40;;;;;;5051541;28;19924;-61
2021/06/15 07:55:23;;;;;;;;;;;29.70;38.40;;;;;;5051594;28;19924;-61
2021/06/15 07:57:48;;;;;;;;;;;30.20;39.20;;;;;;5050599;28;19912;-61
2021/06/15 08:00:15;;;;;;;;;;;31.20;38.80;;;;;;5049864;28;19975;-61
2021/06/15 08:02:43;;;;;;;;;;;31.50;36.70;;;;;;5050449;28;19921;-68
2021/06/15 08:05:09;;;;;;;;;;;31.50;35.90;;;;;;5049718;28;19932;-66
2021/06/15 08:07:35;;;;;;;;;;;31.20;35.00;;;;;;5049060;28;19916;-66
2021/06/15 08:10:00;;;;;;;;;;;30.60;34.20;;;;;;5050351;28;19952;-66
2021/06/15 08:12:26;;;;;;;;;;;29.50;34.70;;;;;;5049877;28;19916;-65
2021/06/15 08:14:52;;;;;;;;;;;28.50;34.60;;;;;;5050616;28;19924;-65
2021/06/15 08:17:17;;;;;;;;;;;27.80;35.10;;;;;;5051728;28;19920;-66
2021/06/15 08:19:43;;;;;;;;;;;27.50;35.60;;;;;;5050940;28;19925;-64
2021/06/15 08:22:09;;;;;;;;;;;27.50;36.50;;;;;;5051857;28;19912;-65
2021/06/15 08:24:34;;;;;;;;;;;27.60;36.50;;;;;;5050953;28;19970;-65
2021/06/15 08:27:00;;;;;;;;;;;28.00;37.70;;;;;;5051548;28;19958;-65
2021/06/15 08:29:26;;;;;;;;;;;28.70;37.60;;;;;;5051416;28;20054;-65
2021/06/15 08:31:52;;;;;;;;;;;29.10;37.00;;;;;;5049942;28;19921;-66
2021/06/15 08:34:18;;;;;;;;;;;29.60;36.50;;;;;;5051035;28;19924;-65
2021/06/15 08:36:43;;;;;;;;;;;30.30;37.30;;;;;;5050167;28;19921;-66
2021/06/15 08:39:09;;;;;;;;;;;31.10;35.90;;;;;;5050792;28;20254;-66
2021/06/15 08:41:35;;;;;;;;;;;31.50;34.70;;;;;;5051480;28;20440;-66
2021/06/15 08:44:02;;;;;;;;;;;31.80;34.30;;;;;;5050759;28;20323;-65
2021/06/15 08:46:29;;;;;;;;;;;31.90;33.10;;;;;;5051285;28;20373;-66
2021/06/15 08:48:55;;;;;;;;;;;32.60;33.80;;;;;;5051388;28;20376;-66
2021/06/15 08:51:21;;;;;;;;;;;33.70;33.70;;;;;;5050992;28;19918;-66
2021/06/15 08:53:48;;;;;;;;;;;34.80;33.10;;;;;;5050810;28;20345;-66
2021/06/15 08:56:40;;;;;;;;;;;34.90;31.20;;;;;;5051022;28;19943;-66
2021/06/15 08:59:06;;;;;;;;;;;34.30;30.00;;;;;;5052246;28;19925;-65
2021/06/15 09:01:31;;;;;;;;;;;32.90;29.60;;;;;;5054803;28;20361;-63
2021/06/15 09:03:57;;;;;;;;;;;31.50;29.70;;;;;;5054806;28;19921;-65
2021/06/15 09:06:23;;;;;;;;;;;29.90;30.20;;;;;;5053803;28;20008;-64
2021/06/15 09:08:56;;;;;;;;;;;28.60;31.60;;;;;;5054957;28;19921;-63
2021/06/15 09:11:22;;;;;;;;;;;28.30;32.80;;;;;;5054887;28;20397;-64
2021/06/15 09:13:48;;;;;;;;;;;28.20;33.50;;;;;;5053888;28;19933;-64
2021/06/15 09:16:28;;;;;;;;;;;29.00;35.70;;;;;;5054678;28;19912;-66
2021/06/15 09:18:58;;;;;;;;;;;31.90;37.10;;;;;;5054201;28;19923;-66
2021/06/15 09:21:30;;;;;;;;;;;34.30;34.50;;;;;;5048870;28;19929;-66
2021/06/15 09:24:09;;;;;;;;;;;37.30;33.00;;;;;;5047577;28;20389;-67
2021/06/15 09:26:50;;;;;;;;;;;38.00;30.30;;;;;;5043302;28;19916;-65
2021/06/15 09:29:16;;;;;;;;;;;37.90;28.40;;;;;;5037348;28;19925;-65
2021/06/15 09:31:53;;;;;;;;;;;36.60;27.70;;;;;;5053706;28;19913;-64
2021/06/15 09:34:19;;;;;;;;;;;34.90;27.60;;;;;;5053500;28;19920;-65
2021/06/15 09:36:44;;;;;;;;;;;32.70;27.70;;;;;;5054662;28;20270;-64
2021/06/15 09:39:10;;;;;;;;;;;31.00;28.90;;;;;;5054082;28;20351;-65
2021/06/15 09:41:43;;;;;;;;;;;31.00;31.10;;;;;;5054563;28;19921;-66
2021/06/15 09:44:18;;;;;;;;;;;34.10;33.10;;;;;;5054316;28;19921;-66
2021/06/15 09:46:44;;;;;;;;;;;37.70;30.40;;;;;;5054214;28;19951;-67
2021/06/15 09:49:12;;;;;;;;;;;40.30;29.10;;;;;;5054413;28;19917;-64
2021/06/15 09:51:38;;;;;;;;;;;41.20;26.80;;;;;;5053931;28;20381;-63
2021/06/15 09:54:03;;;;;;;;;;;39.10;25.20;;;;;;5054094;28;19917;-66
2021/06/15 09:56:29;;;;;;;;;;;36.20;25.10;;;;;;5054134;28;19916;-66
2021/06/15 09:58:55;;;;;;;;;;;33.90;26.40;;;;;;5053824;28;19924;-65
2021/06/15 10:01:22;;;;;;;;;;;34.70;28.70;;;;;;5054071;28;19939;-62
2021/06/15 10:04:07;;;;;;;;;;;37.50;28.70;;;;;;5053470;28;19986;-63
2021/06/15 10:06:33;;;;;;;;;;;40.30;27.70;;;;;;5054076;28;19917;-61
2021/06/15 10:09:00;;;;;;;;;;;42.90;26.10;;;;;;5052793;28;19929;-59
2021/06/15 10:11:25;;;;;;;;;;;42.70;24.30;;;;;;5053890;28;20400;-59
2021/06/15 10:13:51;;;;;;;;;;;40.50;23.40;;;;;;5053280;28;19917;-61
2021/06/15 10:16:18;;;;;;;;;;;37.80;23.50;;;;;;5039285;28;19925;-60
2021/06/15 10:18:43;;;;;;;;;;;35.30;24.00;;;;;;5043038;28;19920;-60
2021/06/15 10:21:10;;;;;;;;;;;33.50;25.20;;;;;;5042512;28;19917;-59
2021/06/15 10:23:35;;;;;;;;;;;33.10;26.20;;;;;;5039477;28;19952;-60
2021/06/15 10:26:01;;;;;;;;;;;34.20;27.20;;;;;;5042081;28;20399;-60
2021/06/15 10:28:30;;;;;;;;;;;36.30;27.50;;;;;;5039543;28;19983;-61
2021/06/15 10:30:59;;;;;;;;;;;37.80;26.20;;;;;;5033580;28;19921;-60
2021/06/15 10:33:26;;;;;;;;;;;38.40;25.50;;;;;;5032528;28;19921;-63
2021/06/15 10:35:55;;;;;;;;;;;39.10;25.40;;;;;;5033671;28;19913;-59
2021/06/15 10:38:24;;;;;;;;;;;40.70;25.30;;;;;;5033556;28;20404;-59
2021/06/15 10:40:50;;;;;;;;;;;40.70;24.00;;;;;;5079822;22;19999;-59
2021/06/15 10:43:26;;;;;;;;;;;39.00;23.40;;;;;;5062342;28;20400;-59
2021/06/15 10:46:12;;;;;;;;;;;38.70;24.60;;;;;;5069794;28;19920;-60
2021/06/15 10:48:43;;;;;;;;;;;38.80;24.30;;;;;;5059281;28;19977;-60
2021/06/15 10:51:17;;;;;;;;;;;39.90;24.80;;;;;;5062699;28;20344;-60
2021/06/15 10:53:43;;;;;;;;;;;40.50;24.00;;;;;;5063515;28;19916;-59
2021/06/15 10:56:09;;;;;;;;;;;38.50;22.70;;;;;;5072912;28;19966;-59
2021/06/15 10:58:35;;;;;;;;;;;36.20;23.80;;;;;;5073211;28;20333;-59
2021/06/15 11:01:17;;;;;;;;;;;37.40;25.70;;;;;;5072987;28;19920;-60
2021/06/15 11:03:46;;;;;;;;;;;40.40;25.50;;;;;;5072373;28;20430;-63
2021/06/15 11:06:13;;;;;;;;;;;43.50;24.60;;;;;;5071628;28;20373;-63
2021/06/15 11:08:38;;;;;;;;;;;44.90;23.30;;;;;;5072517;28;19921;-63
2021/06/15 11:11:05;;;;;;;;;;;43.60;21.80;;;;;;5069719;28;20312;-63
2021/06/15 11:13:50;;;;;;;;;;;40.60;21.50;;;;;;5061006;28;19924;-63
2021/06/15 11:16:35;;;;;;;;;;;38.60;22.70;;;;;;5060818;28;19916;-62
2021/06/15 11:19:13;;;;;;;;;;;39.10;23.90;;;;;;5059909;28;20012;-64
2021/06/15 11:21:47;;;;;;;;;;;40.90;24.10;;;;;;5054585;28;19917;-63
2021/06/15 11:24:26;;;;;;;;;;;40.80;22.90;;;;;;5052486;28;19975;-63
2021/06/15 11:26:53;;;;;;;;;;;39.40;22.50;;;;;;5052289;28;19952;-63
2021/06/15 11:29:38;;;;;;;;;;;37.20;22.80;;;;;;5051128;28;20337;-63
2021/06/15 11:32:22;;;;;;;;;;;35.00;23.30;;;;;;5052273;28;20033;-62
2021/06/15 11:34:54;;;;;;;;;;;33.00;24.20;;;;;;5051742;28;20296;-62
2021/06/15 11:37:28;;;;;;;;;;;31.60;25.30;;;;;;5051626;28;19928;-62
2021/06/15 11:39:55;;;;;;;;;;;30.50;26.00;;;;;;5049162;28;19945;-62
2021/06/15 11:42:30;;;;;;;;;;;29.80;26.80;;;;;;5050699;28;19996;-63
2021/06/15 11:44:59;;;;;;;;;;;29.30;27.40;;;;;;5049220;28;19998;-61
2021/06/15 11:47:27;;;;;;;;;;;28.80;27.90;;;;;;5050783;28;19925;-62
2021/06/15 11:50:12;;;;;;;;;;;28.50;28.40;;;;;;5050096;28;19995;-62
2021/06/15 11:52:43;;;;;;;;;;;28.40;29.00;;;;;;5051710;28;19940;-62
2021/06/15 11:55:10;;;;;;;;;;;28.20;29.00;;;;;;5051850;28;20334;-62
2021/06/15 11:57:35;;;;;;;;;;;28.00;29.50;;;;;;5050265;28;19923;-62
2021/06/15 12:00:02;;;;;;;;;;;28.10;30.00;;;;;;5051733;28;19917;-62
2021/06/15 12:02:31;;;;;;;;;;;29.00;30.50;;;;;;5050634;28;19920;-62
2021/06/15 12:05:09;;;;;;;;;;;30.00;30.30;;;;;;5059248;28;19921;-63
2021/06/15 12:07:39;;;;;;;;;;;30.10;29.30;;;;;;5049860;28;19943;-62
2021/06/15 12:10:07;;;;;;;;;;;29.70;29.20;;;;;;5051595;28;19921;-62
2021/06/15 12:13:07;;;;;;;;;;;29.50;29.50;;;;;;5050344;28;19966;-63
2021/06/15 12:15:52;;;;;;;;;;;29.40;30.00;;;;;;5027072;28;19925;-62
2021/06/15 12:18:20;;;;;;;;;;;29.30;29.70;;;;;;5050525;28;19920;-62
2021/06/15 12:20:46;;;;;;;;;;;28.80;29.70;;;;;;5051598;28;20376;-62
2021/06/15 12:23:27;;;;;;;;;;;28.40;30.00;;;;;;5051286;28;19913;-62
2021/06/15 12:26:11;;;;;;;;;;;28.60;31.20;;;;;;5066265;28;19920;-62
2021/06/15 12:28:37;;;;;;;;;;;28.60;30.30;;;;;;5066437;28;19983;-61
2021/06/15 12:31:11;;;;;;;;;;;28.40;30.90;;;;;;5051321;28;19920;-62
2021/06/15 12:33:38;;;;;;;;;;;28.10;30.70;;;;;;5051283;28;19921;-62
2021/06/15 12:36:05;;;;;;;;;;;27.80;31.00;;;;;;5049834;28;19935;-61
2021/06/15 12:38:31;;;;;;;;;;;27.70;31.70;;;;;;5051611;28;19921;-62
2021/06/15 12:40:57;;;;;;;;;;;27.60;31.50;;;;;;5050889;28;19920;-61
2021/06/15 12:43:26;;;;;;;;;;;27.30;31.20;;;;;;5051258;28;19974;-62
2021/06/15 12:46:10;;;;;;;;;;;26.80;31.50;;;;;;5051376;28;19924;-62
2021/06/15 12:48:43;;;;;;;;;;;26.30;32.00;;;;;;5050938;28;20376;-61
2021/06/15 12:51:13;;;;;;;;;;;26.00;33.20;;;;;;5051332;28;20281;-62
2021/06/15 12:53:40;;;;;;;;;;;25.90;33.40;;;;;;5050964;28;19941;-61
2021/06/15 12:56:16;;;;;;;;;;;25.80;33.20;;;;;;5051344;28;19928;-62
2021/06/15 12:58:44;;;;;;;;;;;25.80;33.50;;;;;;5050811;28;19917;-61
2021/06/15 13:01:13;;;;;;;;;;;25.80;33.70;;;;;;5051247;28;19939;-62
2021/06/15 13:03:39;;;;;;;;;;;25.80;34.10;;;;;;5050512;28;19921;-62
2021/06/15 13:06:08;;;;;;;;;;;25.80;33.70;;;;;;5049818;28;19924;-61
2021/06/15 13:08:38;;;;;;;;;;;25.60;34.10;;;;;;5051166;28;19966;-61
2021/06/15 13:11:09;;;;;;;;;;;25.40;34.10;;;;;;5050629;28;19916;-62
2021/06/15 13:13:34;;;;;;;;;;;25.20;34.60;;;;;;5051001;28;19916;-61
2021/06/15 13:16:11;;;;;;;;;;;25.20;35.40;;;;;;5049300;28;20363;-62
2021/06/15 13:18:36;;;;;;;;;;;25.30;35.40;;;;;;5051100;28;19975;-61
2021/06/15 13:21:02;;;;;;;;;;;25.30;35.10;;;;;;5050564;28;19952;-61
2021/06/15 13:23:27;;;;;;;;;;;25.10;35.40;;;;;;5050414;28;20431;-62
2021/06/15 13:25:54;;;;;;;;;;;25.10;35.50;;;;;;5051045;28;19924;-61
2021/06/15 13:28:21;;;;;;;;;;;25.00;35.40;;;;;;5049944;28;20011;-61
2021/06/15 13:30:47;;;;;;;;;;;24.90;35.60;;;;;;5053892;28;19962;-69
2021/06/15 13:33:17;;;;;;;;;;;24.90;35.90;;;;;;5059358;28;20384;-70
2021/06/15 13:35:48;;;;;;;;;;;25.00;36.40;;;;;;5058061;28;19986;-70
2021/06/15 13:38:18;;;;;;;;;;;25.10;36.50;;;;;;5049695;28;19952;-69
2021/06/15 13:40:46;;;;;;;;;;;25.10;36.20;;;;;;5048220;28;21593;-69
2021/06/15 13:43:14;;;;;;;;;;;25.10;36.60;;;;;;5050487;28;19917;-69
2021/06/15 13:45:44;;;;;;;;;;;25.20;36.50;;;;;;5054190;28;19917;-69
2021/06/15 13:48:10;;;;;;;;;;;25.10;36.10;;;;;;5036627;28;20297;-70
2021/06/15 13:50:37;;;;;;;;;;;24.90;36.50;;;;;;5061998;28;20296;-69
2021/06/15 13:53:02;;;;;;;;;;;24.90;36.70;;;;;;5065708;28;19932;-69
2021/06/15 13:55:30;;;;;;;;;;;24.80;36.70;;;;;;5071036;28;19927;-67
2021/06/15 13:57:56;;;;;;;;;;;24.60;37.00;;;;;;5056182;28;19932;-65
2021/06/15 14:00:22;;;;;;;;;;;24.50;36.90;;;;;;5074315;28;19916;-66
2021/06/15 14:02:48;;;;;;;;;;;24.40;37.20;;;;;;5072172;28;19916;-67
2021/06/15 14:05:15;;;;;;;;;;;24.50;37.50;;;;;;5074124;28;19959;-65
2021/06/15 14:07:41;;;;;;;;;;;24.60;37.40;;;;;;5067461;28;20304;-65
2021/06/15 14:10:08;;;;;;;;;;;24.80;37.20;;;;;;5072514;28;19923;-67
2021/06/15 14:12:34;;;;;;;;;;;24.80;37.20;;;;;;5073563;28;19927;-66
2021/06/15 14:15:05;;;;;;;;;;;24.90;37.50;;;;;;5073303;28;20272;-67
2021/06/15 14:17:31;;;;;;;;;;;25.00;36.70;;;;;;5073620;28;20342;-67
2021/06/15 14:19:57;;;;;;;;;;;24.90;36.60;;;;;;5073974;28;19920;-66
2021/06/15 14:22:23;;;;;;;;;;;24.80;36.50;;;;;;5073489;28;19917;-67
2021/06/15 14:24:48;;;;;;;;;;;24.70;36.50;;;;;;5072296;28;20375;-67
2021/06/15 14:27:14;;;;;;;;;;;24.50;36.70;;;;;;5062377;28;19917;-67